createdAt,value
2022-07-26T00:00:59.467Z,48.55
2022-07-26T00:03:44.772Z,49.93
2022-07-26T00:06:29.731Z,48.51
2022-07-26T00:09:14.454Z,48.00
2022-07-26T00:11:59.250Z,48.11
2022-07-26T00:14:43.945Z,48.27
2022-07-26T00:17:28.725Z,47.64
2022-07-26T00:20:13.576Z,47.41
2022-07-26T00:22:58.373Z,47.65
2022-07-26T00:25:43.199Z,46.93
2022-07-26T00:28:27.880Z,46.09
2022-07-26T00:31:12.564Z,47.06
2022-07-26T00:33:57.179Z,49.06
2022-07-26T00:36:42.175Z,49.69
2022-07-26T00:39:26.894Z,49.22
2022-07-26T00:42:11.780Z,49.18
2022-07-26T00:44:56.363Z,48.56
2022-07-26T00:47:41.059Z,49.50
2022-07-26T00:50:25.825Z,49.84
2022-07-26T00:53:10.525Z,51.30
2022-07-26T00:55:55.161Z,52.24
2022-07-26T00:58:40.033Z,52.48
2022-07-26T01:01:26.479Z,53.70
2022-07-26T01:04:11.853Z,53.90
2022-07-26T01:06:57.137Z,53.25
2022-07-26T01:09:41.717Z,53.99
2022-07-26T01:12:26.486Z,53.47
2022-07-26T01:15:11.234Z,54.08
2022-07-26T01:17:55.940Z,54.25
2022-07-26T01:20:40.607Z,52.75
2022-07-26T01:23:25.306Z,53.54
2022-07-26T01:26:10.189Z,55.63
2022-07-26T01:28:55.973Z,55.04
2022-07-26T01:31:40.955Z,56.72
2022-07-26T01:34:26.046Z,57.90
2022-07-26T01:37:10.809Z,57.63
2022-07-26T01:39:55.460Z,57.87
2022-07-26T01:42:40.214Z,58.16
2022-07-26T01:45:24.954Z,58.82
2022-07-26T01:48:09.684Z,57.96
2022-07-26T01:50:54.465Z,58.95
2022-07-26T01:53:39.235Z,58.96
2022-07-26T01:56:24.128Z,59.70
2022-07-26T01:59:08.805Z,60.08
2022-07-26T02:01:53.657Z,59.25
2022-07-26T02:04:38.823Z,59.00
2022-07-26T02:07:23.688Z,58.88
2022-07-26T02:10:09.900Z,57.59
2022-07-26T02:12:57.630Z,58.77
2022-07-26T02:15:42.483Z,59.82
2022-07-26T02:18:27.658Z,59.11
2022-07-26T02:21:12.346Z,60.33
2022-07-26T02:23:57.164Z,59.08
2022-07-26T02:26:42.058Z,60.27
2022-07-26T02:29:26.686Z,59.95
2022-07-26T02:32:11.320Z,59.31
2022-07-26T02:34:56.072Z,59.32
2022-07-26T02:37:42.513Z,60.28
2022-07-26T02:40:29.299Z,59.98
2022-07-26T02:43:14.003Z,60.85
2022-07-26T02:46:01.835Z,60.46
2022-07-26T02:48:47.815Z,61.19
2022-07-26T02:51:32.839Z,60.23
2022-07-26T02:54:17.577Z,60.48
2022-07-26T02:57:02.327Z,60.67
2022-07-26T02:59:46.921Z,60.84
2022-07-26T03:02:31.842Z,61.19
2022-07-26T03:05:17.092Z,61.09
2022-07-26T03:08:01.805Z,60.42
2022-07-26T03:10:46.715Z,62.29
2022-07-26T03:13:31.457Z,61.93
2022-07-26T03:16:19.951Z,62.49
2022-07-26T03:19:07.779Z,61.62
2022-07-26T03:21:52.766Z,62.85
2022-07-26T03:24:37.384Z,62.06
2022-07-26T03:27:22.249Z,60.70
2022-07-26T03:30:06.986Z,59.99
2022-07-26T03:32:51.760Z,60.00
2022-07-26T03:35:36.896Z,60.72
2022-07-26T03:38:21.757Z,60.47
2022-07-26T03:41:06.559Z,60.58
2022-07-26T03:43:51.139Z,61.71
2022-07-26T03:46:36.009Z,62.35
2022-07-26T03:49:21.251Z,62.28
2022-07-26T03:52:06.467Z,63.20
2022-07-26T03:54:51.381Z,62.77
2022-07-26T03:57:36.165Z,63.18
2022-07-26T04:00:20.942Z,63.66
2022-07-26T04:03:05.712Z,63.72
2022-07-26T04:05:50.685Z,64.06
2022-07-26T04:08:38.047Z,63.33
2022-07-26T04:11:22.834Z,64.56
2022-07-26T04:14:12.119Z,66.16
2022-07-26T04:16:57.534Z,66.35
2022-07-26T04:19:42.351Z,65.64
2022-07-26T04:22:27.009Z,64.87
2022-07-26T04:25:12.303Z,65.10
2022-07-26T04:27:57.056Z,64.54
2022-07-26T04:30:41.681Z,64.76
2022-07-26T04:33:26.507Z,64.25
2022-07-26T04:36:11.192Z,63.77
2022-07-26T04:38:56.125Z,64.10
2022-07-26T04:41:40.797Z,64.70
2022-07-26T04:44:25.722Z,65.22
2022-07-26T04:47:10.445Z,65.02
2022-07-26T04:49:55.223Z,64.69
2022-07-26T04:52:40.192Z,64.08
2022-07-26T04:55:24.931Z,63.74
2022-07-26T04:58:09.808Z,63.70
2022-07-26T05:01:11.306Z,63.36
2022-07-26T05:03:56.478Z,63.03
2022-07-26T05:06:41.157Z,63.79
2022-07-26T05:09:26.096Z,63.53
2022-07-26T05:12:10.680Z,63.45
2022-07-26T05:14:55.465Z,64.13
2022-07-26T05:17:40.692Z,63.48
2022-07-26T05:20:25.387Z,63.63
2022-07-26T05:23:10.279Z,64.09
2022-07-26T05:25:55.114Z,64.10
2022-07-26T05:28:39.845Z,63.56
2022-07-26T05:31:25.044Z,63.29
2022-07-26T05:34:10.672Z,63.89
2022-07-26T05:36:56.002Z,62.15
2022-07-26T05:39:40.855Z,61.23
2022-07-26T05:42:25.689Z,60.20
2022-07-26T05:45:10.416Z,60.36
2022-07-26T05:47:55.256Z,60.13
2022-07-26T05:50:40.064Z,59.21
2022-07-26T05:53:24.829Z,50.56
2022-07-26T05:56:09.563Z,47.43
2022-07-26T05:58:54.371Z,46.40
2022-07-26T06:01:39.341Z,46.12
2022-07-26T06:04:25.044Z,48.82
2022-07-26T06:07:11.610Z,50.94
2022-07-26T06:09:56.254Z,49.77
2022-07-26T06:12:41.045Z,49.17
2022-07-26T06:15:25.716Z,51.76
2022-07-26T06:18:10.486Z,53.05
2022-07-26T06:20:55.078Z,53.44
2022-07-26T06:23:39.930Z,53.75
2022-07-26T06:26:24.768Z,52.94
2022-07-26T06:29:09.535Z,53.61
2022-07-26T06:31:54.468Z,48.97
2022-07-26T06:34:39.621Z,41.32
2022-07-26T06:37:24.338Z,39.07
2022-07-26T06:40:09.146Z,38.29
2022-07-26T06:42:54.059Z,38.01
2022-07-26T06:45:38.838Z,38.38
2022-07-26T06:48:23.537Z,37.53
2022-07-26T06:51:08.222Z,31.98
2022-07-26T06:53:53.084Z,31.16
2022-07-26T06:56:37.770Z,27.37
2022-07-26T06:59:22.580Z,28.08
2022-07-26T07:02:07.369Z,26.62
2022-07-26T07:04:52.498Z,24.73
2022-07-26T07:07:37.873Z,24.58
2022-07-26T07:10:23.784Z,25.45
2022-07-26T07:13:09.397Z,26.83
2022-07-26T07:15:54.186Z,27.26
2022-07-26T07:18:39.452Z,27.92
2022-07-26T07:21:24.109Z,26.33
2022-07-26T07:24:09.327Z,25.93
2022-07-26T07:26:54.752Z,26.13
2022-07-26T07:29:41.357Z,26.44
2022-07-26T07:32:27.318Z,27.10
2022-07-26T07:35:13.769Z,27.37
2022-07-26T07:37:58.485Z,28.20
2022-07-26T07:40:43.200Z,30.71
2022-07-26T07:43:27.893Z,33.36
2022-07-26T07:46:12.868Z,36.41
2022-07-26T07:48:58.073Z,38.73
2022-07-26T07:51:43.191Z,42.01
2022-07-26T07:54:30.641Z,42.24
2022-07-26T07:57:15.386Z,43.55
2022-07-26T08:00:00.902Z,45.44
2022-07-26T08:02:46.959Z,45.75
2022-07-26T08:05:31.619Z,46.24
2022-07-26T08:08:16.474Z,45.76
2022-07-26T08:11:01.444Z,45.33
2022-07-26T08:13:48.143Z,46.21
2022-07-26T08:16:33.269Z,45.49
2022-07-26T08:19:18.526Z,43.32
2022-07-26T08:22:04.768Z,44.48
2022-07-26T08:24:50.434Z,45.49
2022-07-26T08:27:40.829Z,43.69
2022-07-26T08:30:26.241Z,44.07
2022-07-26T08:33:10.986Z,43.42
2022-07-26T08:35:58.509Z,40.89
2022-07-26T08:38:43.540Z,40.37
2022-07-26T08:41:28.236Z,40.73
2022-07-26T08:44:13.112Z,42.51
2022-07-26T08:46:57.690Z,41.82
2022-07-26T08:49:42.900Z,42.24
2022-07-26T08:52:27.574Z,43.02
2022-07-26T08:55:12.257Z,42.52
2022-07-26T08:57:56.909Z,43.09
2022-07-26T09:00:41.729Z,42.19
2022-07-26T09:03:26.926Z,42.85
2022-07-26T09:06:11.727Z,41.92
2022-07-26T09:08:56.457Z,43.78
2022-07-26T09:11:41.267Z,40.73
2022-07-26T09:14:26.080Z,40.44
2022-07-26T09:17:10.824Z,39.99
2022-07-26T09:19:55.724Z,41.64
2022-07-26T09:22:40.448Z,40.41
2022-07-26T09:25:25.222Z,39.80
2022-07-26T09:28:09.878Z,40.73
2022-07-26T09:30:54.721Z,39.30
2022-07-26T09:33:39.809Z,39.64
2022-07-26T09:36:24.441Z,39.42
2022-07-26T09:39:09.479Z,40.16
2022-07-26T09:42:17.410Z,39.05
2022-07-26T09:44:59.877Z,40.64
2022-07-26T09:47:44.719Z,38.90
2022-07-26T09:50:29.974Z,39.67
2022-07-26T09:53:15.378Z,39.59
2022-07-26T09:56:00.059Z,38.89
2022-07-26T09:58:44.809Z,39.93
2022-07-26T10:01:29.535Z,40.08
2022-07-26T10:04:14.695Z,41.58
2022-07-26T10:06:59.749Z,41.38
2022-07-26T10:09:44.539Z,40.38
2022-07-26T10:12:30.660Z,41.66
2022-07-26T10:15:15.427Z,41.50
2022-07-26T10:18:04.228Z,41.84
2022-07-26T10:20:50.039Z,40.89
2022-07-26T10:23:34.902Z,40.52
2022-07-26T10:26:19.659Z,40.54
2022-07-26T10:29:04.381Z,41.36
2022-07-26T10:31:49.374Z,40.63
2022-07-26T10:34:34.335Z,40.68
2022-07-26T10:37:19.033Z,41.00
2022-07-26T10:40:03.728Z,39.07
2022-07-26T10:42:48.582Z,38.85
2022-07-26T10:45:33.285Z,38.12
2022-07-26T10:48:17.982Z,38.78
2022-07-26T10:51:06.225Z,37.73
2022-07-26T10:53:51.516Z,37.91
2022-07-26T10:56:36.317Z,39.38
2022-07-26T10:59:45.783Z,37.08
2022-07-26T11:02:26.215Z,38.00
2022-07-26T11:05:11.523Z,37.22
2022-07-26T11:07:56.262Z,36.40
2022-07-26T11:10:40.911Z,38.77
2022-07-26T11:13:25.730Z,36.43
2022-07-26T11:16:10.441Z,37.43
2022-07-26T11:18:55.735Z,36.96
2022-07-26T11:21:40.509Z,36.49
2022-07-26T11:24:25.445Z,36.82
2022-07-26T11:27:10.101Z,35.32
2022-07-26T11:29:54.852Z,35.39
2022-07-26T11:32:39.646Z,34.84
2022-07-26T11:35:24.771Z,35.15
2022-07-26T11:38:15.187Z,35.31
2022-07-26T11:41:00.073Z,35.46
2022-07-26T11:43:44.852Z,34.41
2022-07-26T11:46:29.659Z,35.16
2022-07-26T11:49:14.835Z,34.64
2022-07-26T11:52:00.062Z,33.61
2022-07-26T11:54:44.731Z,33.47
2022-07-26T11:57:30.169Z,33.04
2022-07-26T12:00:15.155Z,33.11
2022-07-26T12:02:59.985Z,33.23
2022-07-26T12:05:45.834Z,32.53
2022-07-26T12:08:30.974Z,32.54
2022-07-26T12:11:15.735Z,33.70
2022-07-26T12:14:00.425Z,32.80
2022-07-26T12:16:45.135Z,32.66
2022-07-26T12:19:29.780Z,32.76
2022-07-26T12:22:14.733Z,31.71
2022-07-26T12:24:59.443Z,32.62
2022-07-26T12:27:44.220Z,32.09
2022-07-26T12:30:30.340Z,31.56
2022-07-26T12:33:16.068Z,31.65
2022-07-26T12:36:00.842Z,31.96
2022-07-26T12:38:47.728Z,31.62
2022-07-26T12:41:32.747Z,30.47
2022-07-26T12:44:17.596Z,30.24
2022-07-26T12:47:02.841Z,30.38
2022-07-26T12:49:47.655Z,29.53
2022-07-26T12:52:32.393Z,29.25
2022-07-26T12:55:17.373Z,28.84
2022-07-26T12:58:02.010Z,28.78
2022-07-26T13:00:46.873Z,28.50
2022-07-26T13:03:31.609Z,29.34
2022-07-26T13:06:16.499Z,27.20
2022-07-26T13:09:01.188Z,26.24
2022-07-26T13:11:45.911Z,27.96
2022-07-26T13:14:30.805Z,27.11
2022-07-26T13:17:15.493Z,27.51
2022-07-26T13:20:00.864Z,27.91
2022-07-26T13:22:45.978Z,29.16
2022-07-26T13:25:38.227Z,30.08
2022-07-26T13:28:25.228Z,29.65
2022-07-26T13:31:10.083Z,28.71
2022-07-26T13:33:55.636Z,28.92
2022-07-26T13:36:40.518Z,29.67
2022-07-26T13:39:25.272Z,27.02
2022-07-26T13:42:16.606Z,27.84
2022-07-26T13:45:01.396Z,27.17
2022-07-26T13:47:46.156Z,28.41
2022-07-26T13:50:31.006Z,29.06
2022-07-26T13:53:15.724Z,28.16
2022-07-26T13:56:00.442Z,29.22
2022-07-26T13:58:45.166Z,30.11
2022-07-26T14:01:44.786Z,28.62
2022-07-26T14:04:30.146Z,27.89
2022-07-26T14:07:14.843Z,26.74
2022-07-26T14:09:59.675Z,26.76
2022-07-26T14:12:44.513Z,27.95
2022-07-26T14:15:29.353Z,27.23
2022-07-26T14:18:14.040Z,27.39
2022-07-26T14:20:58.765Z,26.44
2022-07-26T14:23:43.652Z,26.77
2022-07-26T14:26:28.413Z,26.27
2022-07-26T14:29:13.154Z,27.51
2022-07-26T14:31:57.952Z,26.95
2022-07-26T14:34:43.063Z,27.21
2022-07-26T14:37:42.432Z,26.54
2022-07-26T14:40:30.299Z,26.63
2022-07-26T14:43:14.970Z,28.48
2022-07-26T14:45:59.973Z,28.09
2022-07-26T14:48:54.380Z,27.70
2022-07-26T14:51:39.894Z,27.84
2022-07-26T14:54:24.601Z,27.23
2022-07-26T14:57:09.520Z,27.94
2022-07-26T14:59:54.126Z,28.42
2022-07-26T15:02:38.967Z,27.75
2022-07-26T15:05:24.085Z,27.60
2022-07-26T15:08:09.011Z,27.43
2022-07-26T15:10:53.692Z,27.61
2022-07-26T15:13:38.592Z,27.67
2022-07-26T15:16:23.363Z,27.79
2022-07-26T15:19:08.576Z,28.32
2022-07-26T15:21:53.319Z,28.46
2022-07-26T15:24:40.057Z,28.84
2022-07-26T15:27:25.437Z,29.13
2022-07-26T15:30:14.772Z,29.35
2022-07-26T15:33:00.124Z,29.06
2022-07-26T15:35:44.861Z,29.17
2022-07-26T15:38:29.533Z,29.81
2022-07-26T15:41:14.389Z,30.04
2022-07-26T15:43:59.126Z,29.90
2022-07-26T15:46:45.894Z,29.48
2022-07-26T15:49:32.695Z,29.44
2022-07-26T15:52:18.937Z,29.29
2022-07-26T15:55:03.716Z,29.47
2022-07-26T15:57:48.667Z,29.56
2022-07-26T16:00:33.305Z,29.61
2022-07-26T16:03:18.227Z,30.34
2022-07-26T16:06:05.820Z,30.46
2022-07-26T16:09:15.449Z,30.60
2022-07-26T16:11:56.345Z,31.04
2022-07-26T16:14:41.102Z,31.47
2022-07-26T16:17:25.920Z,31.89
2022-07-26T16:20:11.169Z,32.26
2022-07-26T16:22:55.819Z,32.07
2022-07-26T16:25:40.775Z,31.88
2022-07-26T16:28:25.486Z,32.55
2022-07-26T16:31:10.294Z,32.79
2022-07-26T16:33:55.343Z,32.48
2022-07-26T16:36:40.085Z,32.47
2022-07-26T16:39:24.785Z,32.46
2022-07-26T16:42:09.580Z,32.65
2022-07-26T16:44:54.261Z,33.01
2022-07-26T16:47:39.027Z,33.17
2022-07-26T16:50:27.321Z,33.13
2022-07-26T16:53:13.415Z,32.77
2022-07-26T16:55:58.826Z,32.99
2022-07-26T16:58:43.611Z,33.26
2022-07-26T17:01:28.437Z,32.54
2022-07-26T17:04:13.810Z,32.57
2022-07-26T17:07:23.487Z,32.63
2022-07-26T17:10:03.373Z,32.89
2022-07-26T17:12:48.200Z,32.97
2022-07-26T17:15:32.906Z,33.02
2022-07-26T17:18:17.719Z,33.32
2022-07-26T17:21:02.436Z,33.68
2022-07-26T17:23:47.217Z,33.26
2022-07-26T17:26:31.954Z,32.80
2022-07-26T17:29:21.177Z,33.18
2022-07-26T17:32:05.971Z,33.79
2022-07-26T17:34:50.669Z,34.07
2022-07-26T17:37:35.409Z,35.34
2022-07-26T17:40:20.672Z,34.41
2022-07-26T17:43:05.953Z,34.59
2022-07-26T17:45:50.594Z,33.58
2022-07-26T17:48:35.322Z,35.28
2022-07-26T17:51:20.623Z,35.62
2022-07-26T17:54:05.335Z,35.56
2022-07-26T17:56:50.189Z,35.03
2022-07-26T17:59:34.981Z,35.27
2022-07-26T18:02:19.822Z,35.16
2022-07-26T18:05:04.927Z,35.81
2022-07-26T18:07:50.295Z,34.98
2022-07-26T18:10:34.954Z,35.05
2022-07-26T18:13:19.595Z,34.60
2022-07-26T18:16:06.274Z,34.82
2022-07-26T18:18:51.318Z,35.01
2022-07-26T18:21:36.219Z,35.13
2022-07-26T18:24:20.855Z,35.11
2022-07-26T18:27:05.579Z,34.73
2022-07-26T18:29:50.357Z,34.39
2022-07-26T18:32:35.259Z,35.46
2022-07-26T18:35:19.997Z,35.09
2022-07-26T18:38:04.857Z,35.06
2022-07-26T18:40:49.554Z,35.02
2022-07-26T18:43:34.316Z,35.09
2022-07-26T18:46:19.325Z,35.71
2022-07-26T18:49:04.517Z,35.62
2022-07-26T18:51:51.625Z,36.05
2022-07-26T18:54:37.900Z,36.18
2022-07-26T18:57:22.606Z,36.96
2022-07-26T19:00:07.450Z,36.49
2022-07-26T19:02:52.225Z,37.11
2022-07-26T19:05:36.937Z,37.05
2022-07-26T19:08:22.091Z,36.58
2022-07-26T19:11:06.911Z,37.10
2022-07-26T19:13:51.524Z,36.86
2022-07-26T19:16:36.362Z,36.89
2022-07-26T19:19:21.205Z,37.33
2022-07-26T19:22:06.068Z,37.04
2022-07-26T19:24:50.891Z,37.82
2022-07-26T19:27:35.542Z,38.12
2022-07-26T19:30:20.335Z,38.13
2022-07-26T19:33:05.173Z,38.40
2022-07-26T19:35:49.887Z,38.12
2022-07-26T19:38:34.512Z,38.12
2022-07-26T19:41:19.297Z,37.73
2022-07-26T19:44:04.008Z,37.95
2022-07-26T19:46:50.242Z,37.36
2022-07-26T19:49:36.704Z,37.23
2022-07-26T19:52:21.423Z,37.11
2022-07-26T19:55:06.317Z,37.24
2022-07-26T19:57:50.949Z,38.05
2022-07-26T20:00:35.552Z,38.26
2022-07-26T20:03:20.237Z,38.51
2022-07-26T20:06:05.014Z,38.06
2022-07-26T20:08:49.777Z,37.71
2022-07-26T20:11:34.687Z,38.05
2022-07-26T20:14:19.575Z,38.24
2022-07-26T20:17:04.333Z,38.79
2022-07-26T20:19:56.967Z,39.10
2022-07-26T20:22:41.887Z,39.37
2022-07-26T20:25:26.682Z,39.78
2022-07-26T20:28:11.518Z,39.99
2022-07-26T20:30:56.209Z,40.54
2022-07-26T20:33:41.488Z,40.38
2022-07-26T20:36:26.229Z,41.25
2022-07-26T20:39:11.330Z,41.41
2022-07-26T20:41:56.322Z,41.85
2022-07-26T20:44:41.095Z,41.13
2022-07-26T20:47:25.998Z,41.14
2022-07-26T20:50:10.674Z,41.32
2022-07-26T20:52:55.446Z,41.64
2022-07-26T20:55:40.118Z,41.85
2022-07-26T20:58:24.916Z,41.85
2022-07-26T21:01:09.709Z,41.95
2022-07-26T21:03:54.933Z,42.38
2022-07-26T21:06:39.659Z,42.07
2022-07-26T21:09:24.438Z,42.40
2022-07-26T21:12:09.214Z,42.48
2022-07-26T21:14:54.037Z,42.40
2022-07-26T21:17:38.713Z,42.76
2022-07-26T21:20:23.431Z,42.47
2022-07-26T21:23:17.243Z,42.22
2022-07-26T21:26:03.238Z,42.06
2022-07-26T21:28:48.029Z,41.94
2022-07-26T21:31:32.801Z,41.96
2022-07-26T21:34:17.798Z,42.21
2022-07-26T21:37:02.976Z,42.04
2022-07-26T21:39:47.748Z,42.15
2022-07-26T21:42:32.492Z,42.87
2022-07-26T21:45:17.175Z,42.62
2022-07-26T21:48:01.836Z,42.27
2022-07-26T21:50:46.689Z,42.67
2022-07-26T21:53:31.507Z,43.24
2022-07-26T21:56:16.245Z,44.11
2022-07-26T21:59:02.241Z,44.65
2022-07-26T22:01:46.923Z,45.05
2022-07-26T22:04:31.771Z,45.88
2022-07-26T22:07:16.336Z,45.76
2022-07-26T22:10:01.151Z,46.60
2022-07-26T22:12:45.817Z,47.41
2022-07-26T22:15:30.575Z,46.80
2022-07-26T22:18:15.279Z,46.60
2022-07-26T22:21:00.029Z,46.80
2022-07-26T22:23:45.217Z,46.25
2022-07-26T22:26:29.862Z,46.74
2022-07-26T22:29:14.803Z,46.12
2022-07-26T22:31:59.740Z,46.02
2022-07-26T22:34:44.519Z,46.23
2022-07-26T22:37:29.120Z,45.80
2022-07-26T22:40:13.884Z,45.86
2022-07-26T22:42:58.650Z,46.12
2022-07-26T22:45:43.665Z,46.52
2022-07-26T22:48:29.036Z,46.10
2022-07-26T22:51:14.224Z,46.89
2022-07-26T22:53:59.038Z,47.28
2022-07-26T22:56:43.736Z,47.25
2022-07-26T22:59:28.491Z,47.51
2022-07-26T23:02:13.288Z,47.97
2022-07-26T23:04:58.205Z,47.82
2022-07-26T23:07:43.588Z,48.38
2022-07-26T23:10:32.733Z,48.38
2022-07-26T23:13:17.591Z,48.51
2022-07-26T23:16:02.387Z,47.89
2022-07-26T23:18:47.620Z,47.81
2022-07-26T23:21:32.367Z,47.64
2022-07-26T23:24:17.080Z,47.68
2022-07-26T23:27:01.896Z,48.21
2022-07-26T23:29:46.724Z,48.54
2022-07-26T23:32:33.016Z,48.61
2022-07-26T23:35:17.706Z,48.38
2022-07-26T23:38:02.589Z,48.18
2022-07-26T23:40:47.295Z,47.65
2022-07-26T23:43:32.202Z,48.18
2022-07-26T23:46:16.953Z,47.82
2022-07-26T23:49:02.154Z,48.13
2022-07-26T23:51:47.337Z,48.95
2022-07-26T23:54:32.110Z,49.06
2022-07-26T23:57:16.994Z,49.27
